Portada
METAR-TAF:

METAR-TAF

Aeroports :

Bradshaw Army Air Field

Bradshaw, Hawaii, Estats Units d'Amèrica

latitud: 19-47N, longitud: 155-33W, altitud: 1887 m

Observació

L'informe es va fer fa 53 minuts, a les 09:56 UTC
Vent 5 kt del Est/Sud-Est
Temperatura 9°C
Humitat 34%
Pressió 1030 hPa
Visibilitat: 16.1 km
Cel clar

METAR: PHSF 220956Z AUTO 12005KT 10SM CLR 09/M06 A3042 RMK AO2 SLP185 WND DATA ESTMD T00911060 402380088 PWINO $

Hora: 00:49 (10:49 UTC)


TAF: manca

Observacions i pronòstics meteorològics de més de 4000 aeroports (METAR i TAF).

Les estacions disponibles són els punts grocs i vermells al mapa.

Posi el ratolí al punt desitjat per veure el nom de l'estació.

Feu clic per veure les observacions i els pronòstics meteorològics.

Per canviar el mapa: feu clic els botons verds amb una creu de color negre per apropar; al botó verd amb un guió per allunyar la imatge; o en les fletxes verdes per a mapes adjacents.


METAR-TAF: